Time;durP1;ratioP1;P1;durP2;ratioP2;P2;SDS_P1;SDS_P2;PMS_P1;PMS_P2;Temp;Humidity;BMP_temperature;BMP_pressure;BME280_temperature;BME280_humidity;BME280_pressure;Samples;Min_cycle;Max_cycle;Signal;HPM_P1;HPM_P2
2023/04/18 00:00:37;;;;;;;8.27;5.93;;;9.20;9.70;;;;;;5034246;28;20036;-76
2023/04/18 00:03:03;;;;;;;8.60;5.45;;;9.30;1.00;;;;;;5033681;28;20037;-76
2023/04/18 00:05:29;;;;;;;8.50;5.82;;;9.40;1.00;;;;;;5033734;28;20049;-77
2023/04/18 00:07:58;;;;;;;6.80;5.55;;;9.40;1.00;;;;;;5033791;28;20360;-77
2023/04/18 00:10:24;;;;;;;7.72;5.93;;;9.40;1.00;;;;;;5033671;28;20034;-75
2023/04/18 00:12:50;;;;;;;8.57;6.78;;;9.40;1.00;;;;;;5033580;28;20394;-75
2023/04/18 00:15:17;;;;;;;8.27;6.43;;;9.60;1.00;;;;;;5033998;28;20071;-76
2023/04/18 00:17:43;;;;;;;7.32;5.63;;;9.60;1.00;;;;;;5033733;28;20467;-78
2023/04/18 00:20:10;;;;;;;10.63;5.82;;;9.50;1.00;;;;;;5033365;28;20041;-76
2023/04/18 00:22:41;;;;;;;9.80;5.35;;;9.40;1.00;;;;;;5033808;28;20029;-76
2023/04/18 00:25:09;;;;;;;11.07;6.22;;;9.40;1.00;;;;;;5033205;28;20045;-76
2023/04/18 00:27:35;;;;;;;7.30;5.30;;;9.30;1.00;;;;;;5033335;28;20041;-77
2023/04/18 00:30:02;;;;;;;8.27;5.78;;;9.30;1.00;;;;;;5032566;28;20045;-76
2023/04/18 00:32:28;;;;;;;7.63;5.15;;;9.20;1.00;;;;;;5032758;28;20041;-76
2023/04/18 00:34:54;;;;;;;8.45;5.22;;;9.10;1.00;;;;;;5032775;28;20052;-77
2023/04/18 00:37:20;;;;;;;9.48;5.38;;;8.90;1.00;;;;;;5033097;28;20021;-77
2023/04/18 00:39:52;;;;;;;7.57;5.53;;;9.00;1.00;;;;;;5034257;28;20053;-81
2023/04/18 00:42:23;;;;;;;9.85;5.97;;;8.80;1.00;;;;;;5035903;28;20049;-76
2023/04/18 00:44:49;;;;;;;8.98;5.70;;;8.80;1.00;;;;;;5038600;28;20057;-89
2023/04/18 00:47:18;;;;;;;8.80;6.72;;;8.80;1.00;;;;;;5027105;28;20041;-77
2023/04/18 00:49:45;;;;;;;9.70;6.07;;;8.80;1.40;;;;;;5033403;28;20080;-77
2023/04/18 00:52:11;;;;;;;12.25;6.55;;;8.70;2.80;;;;;;5033026;28;20048;-77
2023/04/18 00:54:39;;;;;;;6.97;5.57;;;8.60;6.50;;;;;;5040290;28;20033;-76
2023/04/18 00:57:06;;;;;;;11.20;6.97;;;8.60;5.60;;;;;;5032185;28;20044;-75
2023/04/18 00:59:36;;;;;;;11.02;7.63;;;8.60;1.00;;;;;;5033228;28;20025;-76
2023/04/18 01:02:03;;;;;;;10.93;7.47;;;8.60;4.10;;;;;;5024438;28;20045;-77
2023/04/18 01:04:30;;;;;;;11.90;7.97;;;8.60;2.70;;;;;;5028584;28;20030;-77
2023/04/18 01:06:57;;;;;;;11.30;6.28;;;8.60;1.00;;;;;;5032071;28;20037;-77
2023/04/18 01:09:24;;;;;;;10.68;6.50;;;8.70;1.00;;;;;;5033063;28;20037;-76
2023/04/18 01:11:51;;;;;;;9.40;7.25;;;8.60;1.00;;;;;;5031357;28;20045;-82
2023/04/18 01:14:18;;;;;;;10.35;7.18;;;8.60;1.00;;;;;;5044103;28;20045;-76
2023/04/18 01:16:47;;;;;;;9.73;7.25;;;8.60;1.00;;;;;;5032682;28;20037;-77
2023/04/18 01:19:14;;;;;;;10.95;7.90;;;8.60;1.00;;;;;;5032446;28;20040;-76
2023/04/18 01:21:42;;;;;;;10.38;7.30;;;8.60;1.00;;;;;;5039662;28;20072;-76
2023/04/18 01:24:13;;;;;;;11.90;8.13;;;8.80;1.00;;;;;;5027984;28;20054;-75
2023/04/18 01:26:48;;;;;;;13.88;7.18;;;8.80;1.00;;;;;;5031215;28;20056;-76
2023/04/18 01:29:14;;;;;;;12.75;8.43;;;8.70;1.00;;;;;;5031947;28;20045;-76
2023/04/18 01:31:40;;;;;;;13.80;7.47;;;8.70;1.00;;;;;;5032491;28;20044;-77
2023/04/18 01:34:07;;;;;;;13.30;6.88;;;8.60;1.00;;;;;;5032108;28;20033;-76
2023/04/18 01:36:35;;;;;;;11.05;7.18;;;8.60;1.00;;;;;;5032528;28;20454;-74
2023/04/18 01:39:02;;;;;;;8.88;6.60;;;8.50;1.00;;;;;;5030792;28;20045;-76
2023/04/18 01:41:31;;;;;;;10.95;6.90;;;8.40;1.00;;;;;;5031234;28;20061;-77
2023/04/18 01:43:58;;;;;;;8.77;6.55;;;8.50;1.00;;;;;;5042138;28;20046;-77
2023/04/18 01:46:25;;;;;;;15.23;7.95;;;8.40;1.00;;;;;;5030315;28;20045;-77
2023/04/18 01:48:52;;;;;;;10.77;6.80;;;8.40;1.00;;;;;;5032113;28;20129;-78
2023/04/18 01:51:20;;;;;;;10.05;7.50;;;8.20;1.00;;;;;;5031311;28;20041;-77
2023/04/18 01:53:46;;;;;;;9.73;7.35;;;8.10;1.00;;;;;;5032220;28;20033;-75
2023/04/18 01:56:12;;;;;;;10.20;7.07;;;8.10;1.00;;;;;;5031787;28;20038;-76
2023/04/18 01:58:40;;;;;;;9.30;6.90;;;8.00;1.00;;;;;;5032342;28;20030;-76
2023/04/18 02:01:07;;;;;;;12.90;7.53;;;8.00;2.40;;;;;;5040166;28;20038;-76
2023/04/18 02:03:33;;;;;;;10.38;7.00;;;8.00;2.90;;;;;;5032778;28;20045;-76
2023/04/18 02:06:00;;;;;;;10.45;7.05;;;8.00;3.60;;;;;;5031578;28;20049;-76
2023/04/18 02:08:26;;;;;;;9.82;7.38;;;7.90;3.60;;;;;;5032154;28;20037;-76
2023/04/18 02:10:52;;;;;;;11.00;7.75;;;7.90;5.00;;;;;;5031053;28;20486;-76
2023/04/18 02:13:20;;;;;;;10.57;7.75;;;7.90;4.70;;;;;;5031661;28;20045;-76
2023/04/18 02:15:46;;;;;;;12.02;7.40;;;7.90;5.60;;;;;;5038485;28;20046;-76
2023/04/18 02:18:16;;;;;;;9.35;6.80;;;7.90;5.40;;;;;;5015535;28;20034;-77
2023/04/18 02:20:42;;;;;;;10.93;6.78;;;7.80;11.70;;;;;;5031779;28;20030;-77
2023/04/18 02:23:08;;;;;;;14.27;6.72;;;7.80;12.50;;;;;;5031080;28;20501;-77
2023/04/18 02:25:34;;;;;;;10.80;7.70;;;7.70;13.60;;;;;;5031896;28;20034;-77
2023/04/18 02:28:00;;;;;;;10.77;6.75;;;7.70;21.30;;;;;;5030181;28;20042;-78
2023/04/18 02:30:30;;;;;;;11.15;6.93;;;7.70;23.40;;;;;;5031608;28;20033;-76
2023/04/18 02:32:56;;;;;;;10.50;6.65;;;7.70;24.70;;;;;;5031156;28;20045;-79
2023/04/18 02:35:24;;;;;;;10.38;6.63;;;7.60;31.70;;;;;;5030502;28;20351;-77
2023/04/18 02:37:50;;;;;;;12.57;7.05;;;7.60;35.20;;;;;;5031637;28;20042;-77
2023/04/18 02:40:17;;;;;;;9.88;7.00;;;7.60;34.00;;;;;;5031843;28;20495;-77
2023/04/18 02:42:43;;;;;;;11.00;6.45;;;7.70;28.50;;;;;;5031115;28;20411;-77
2023/04/18 02:45:13;;;;;;;10.10;6.80;;;7.70;28.40;;;;;;5038303;28;20410;-77
2023/04/18 02:47:41;;;;;;;11.40;7.72;;;7.70;26.40;;;;;;5042848;28;20505;-76
2023/04/18 02:50:07;;;;;;;11.52;7.85;;;7.80;27.30;;;;;;5034782;28;20091;-75
2023/04/18 02:52:35;;;;;;;14.85;7.22;;;7.90;13.50;;;;;;5037153;28;20037;-75
2023/04/18 02:55:04;;;;;;;11.02;7.53;;;8.00;14.20;;;;;;5041798;28;20056;-75
2023/04/18 02:57:36;;;;;;;11.98;8.10;;;7.90;15.40;;;;;;5034683;28;20395;-75
2023/04/18 03:00:22;;;;;;;10.80;7.75;;;7.90;19.00;;;;;;5033325;28;20033;-76
2023/04/18 03:03:09;;;;;;;8.18;6.18;;;7.90;24.30;;;;;;5030011;28;20046;-76
2023/04/18 03:05:40;;;;;;;10.95;7.13;;;7.90;21.70;;;;;;5031402;28;20049;-76
2023/04/18 03:08:07;;;;;;;9.15;6.78;;;8.00;19.10;;;;;;5042026;28;20037;-76
2023/04/18 03:10:35;;;;;;;13.27;7.45;;;8.00;17.70;;;;;;5033495;28;20041;-75
2023/04/18 03:13:01;;;;;;;9.73;6.68;;;8.00;21.30;;;;;;5033342;28;20398;-75
2023/04/18 03:15:30;;;;;;;11.27;6.82;;;8.10;14.50;;;;;;5042122;28;20038;-75
2023/04/18 03:17:57;;;;;;;10.20;7.63;;;8.00;17.30;;;;;;5033984;28;20446;-75
2023/04/18 03:20:24;;;;;;;9.95;6.95;;;8.10;16.90;;;;;;5042197;28;20041;-76
2023/04/18 03:22:51;;;;;;;11.05;7.05;;;8.10;19.90;;;;;;5034192;28;20046;-75
2023/04/18 03:25:22;;;;;;;;;;;8.10;18.40;;;;;;5041513;28;20053;-75
2023/04/18 03:27:51;;;;;;;10.63;7.72;;;8.00;17.90;;;;;;5033515;28;19924;-76
2023/04/18 03:30:20;;;;;;;13.65;8.15;;;8.00;22.90;;;;;;5032841;28;20050;-76
2023/04/18 03:32:54;;;;;;;11.20;7.30;;;8.00;25.30;;;;;;5033528;28;20049;-76
2023/04/18 03:35:21;;;;;;;10.52;6.97;;;8.00;23.70;;;;;;5034803;28;20053;-76
2023/04/18 03:37:48;;;;;;;11.57;7.90;;;8.00;22.40;;;;;;5033727;28;20057;-76
2023/04/18 03:40:23;;;;;;;16.65;7.85;;;8.00;24.20;;;;;;5041048;28;20034;-75
2023/04/18 03:42:51;;;;;;;12.93;7.72;;;7.90;26.80;;;;;;5033485;28;20403;-76
2023/04/18 03:45:18;;;;;;;12.75;8.18;;;7.90;29.20;;;;;;5032313;28;20053;-76
2023/04/18 03:47:46;;;;;;;12.40;8.00;;;7.90;33.10;;;;;;5041278;28;20049;-75
2023/04/18 03:50:12;;;;;;;12.35;8.55;;;7.80;34.60;;;;;;5032541;28;20037;-76
2023/04/18 03:52:40;;;;;;;18.30;8.73;;;7.80;37.60;;;;;;5033041;28;20061;-76
2023/04/18 03:55:06;;;;;;;10.98;7.88;;;7.70;40.60;;;;;;5032280;28;20482;-76
2023/04/18 03:57:33;;;;;;;14.20;8.15;;;7.70;46.00;;;;;;5041094;28;20042;-76
2023/04/18 04:00:04;;;;;;;13.32;8.77;;;7.70;50.60;;;;;;5032787;28;20037;-77
2023/04/18 04:02:41;;;;;;;14.68;8.20;;;7.60;53.10;;;;;;5042071;28;20044;-74
2023/04/18 04:05:09;;;;;;;12.57;8.88;;;7.60;64.70;;;;;;5032320;28;20049;-75
2023/04/18 04:07:35;;;;;;;12.35;8.93;;;7.60;74.40;;;;;;5028176;28;20049;-75
2023/04/18 04:10:02;;;;;;;14.05;9.40;;;7.50;74.70;;;;;;5032856;28;20038;-75
2023/04/18 04:12:29;;;;;;;12.43;9.40;;;7.50;73.80;;;;;;5033023;28;20037;-75
2023/04/18 04:14:55;;;;;;;13.70;9.75;;;7.50;80.80;;;;;;5033126;28;20049;-75
2023/04/18 04:17:21;;;;;;;13.10;9.02;;;7.50;83.00;;;;;;5032278;28;20240;-75
2023/04/18 04:19:49;;;;;;;11.68;8.55;;;7.50;88.60;;;;;;5040919;28;20489;-75
2023/04/18 04:22:18;;;;;;;13.30;9.63;;;7.50;88.80;;;;;;5040634;28;20045;-75
2023/04/18 04:24:45;;;;;;;13.48;8.77;;;7.50;93.20;;;;;;5031415;28;20331;-75
2023/04/18 04:27:13;;;;;;;13.82;8.88;;;7.40;94.60;;;;;;5031775;28;20466;-75
2023/04/18 04:29:42;;;;;;;13.40;8.25;;;7.40;97.30;;;;;;5040832;28;20045;-75
2023/04/18 04:32:09;;;;;;;14.00;9.13;;;7.40;98.80;;;;;;5041170;28;20052;-75
2023/04/18 04:34:40;;;;;;;14.65;8.45;;;7.40;99.90;;;;;;5043001;28;20517;-75
2023/04/18 04:37:08;;;;;;;13.35;9.05;;;7.30;99.90;;;;;;5035938;28;20045;-74
2023/04/18 04:39:43;;;;;;;12.98;9.35;;;7.30;99.90;;;;;;5029591;28;20041;-74
2023/04/18 04:42:29;;;;;;;15.88;10.05;;;7.30;99.90;;;;;;5032347;28;20068;-75
2023/04/18 04:45:07;;;;;;;11.73;8.00;;;7.30;99.90;;;;;;5040948;28;20045;-77
2023/04/18 04:47:36;;;;;;;16.45;9.68;;;7.30;99.90;;;;;;5036471;28;20053;-77
2023/04/18 04:50:03;;;;;;;15.95;9.65;;;7.30;99.90;;;;;;5032328;28;20052;-78
2023/04/18 04:52:31;;;;;;;15.00;9.93;;;7.30;99.90;;;;;;5032294;28;20041;-77
2023/04/18 04:54:57;;;;;;;17.92;9.75;;;7.30;99.90;;;;;;5031846;28;20056;-76
2023/04/18 04:57:25;;;;;;;12.77;8.60;;;7.30;99.90;;;;;;5041403;28;20049;-76
2023/04/18 04:59:51;;;;;;;15.15;9.68;;;7.20;99.90;;;;;;5037969;28;20399;-76
2023/04/18 05:02:21;;;;;;;11.75;8.63;;;7.30;99.90;;;;;;5039717;28;20497;-77
2023/04/18 05:04:48;;;;;;;11.93;8.50;;;7.30;99.90;;;;;;5031285;28;20395;-76
2023/04/18 05:07:14;;;;;;;14.30;9.10;;;7.30;99.90;;;;;;5032265;28;20041;-76
2023/04/18 05:09:40;;;;;;;13.00;8.35;;;7.30;99.90;;;;;;5032534;28;20048;-76
2023/04/18 05:12:07;;;;;;;14.02;9.35;;;7.40;99.90;;;;;;5032000;28;20033;-77
2023/04/18 05:14:33;;;;;;;11.35;8.27;;;7.40;99.90;;;;;;5032047;28;20367;-74
2023/04/18 05:16:59;;;;;;;15.93;10.38;;;7.50;99.90;;;;;;5031493;28;20033;-75
2023/04/18 05:19:25;;;;;;;13.88;8.40;;;7.50;99.90;;;;;;5031878;28;20033;-76
2023/04/18 05:21:51;;;;;;;10.77;8.32;;;7.60;99.90;;;;;;5032644;28;20034;-76
2023/04/18 05:24:18;;;;;;;16.40;8.45;;;7.60;99.90;;;;;;5031862;28;20386;-76
2023/04/18 05:26:44;;;;;;;10.48;7.97;;;7.70;99.90;;;;;;5032508;28;20108;-75
2023/04/18 05:29:10;;;;;;;13.70;8.52;;;7.70;99.90;;;;;;5032278;28;20041;-76
2023/04/18 05:31:36;;;;;;;14.63;8.57;;;7.70;99.90;;;;;;5031708;28;20034;-75
2023/04/18 05:34:02;;;;;;;12.00;8.70;;;7.70;99.90;;;;;;5025477;28;20383;-76
2023/04/18 05:36:28;;;;;;;12.80;8.88;;;7.70;99.90;;;;;;5023632;28;20053;-76
2023/04/18 05:38:55;;;;;;;14.68;9.20;;;7.70;99.90;;;;;;5023342;28;20485;-77
2023/04/18 05:41:21;;;;;;;11.82;8.68;;;7.60;99.90;;;;;;5030956;28;20032;-77
2023/04/18 05:43:48;;;;;;;13.05;9.43;;;7.70;99.90;;;;;;5031957;28;20471;-76
2023/04/18 05:46:14;;;;;;;12.63;8.50;;;7.70;99.90;;;;;;5030714;28;20116;-77
2023/04/18 05:48:40;;;;;;;12.48;8.05;;;7.60;99.90;;;;;;5032321;28;20390;-77
2023/04/18 05:51:06;;;;;;;14.35;8.70;;;7.60;99.90;;;;;;5031879;28;20041;-76
2023/04/18 05:53:32;;;;;;;13.75;8.55;;;7.50;99.90;;;;;;5027478;28;20041;-76
2023/04/18 05:55:58;;;;;;;13.57;8.35;;;7.40;99.90;;;;;;5024353;28;20044;-77
2023/04/18 05:58:25;;;;;;;13.68;8.63;;;7.40;99.90;;;;;;5031621;28;20042;-77
2023/04/18 06:00:52;;;;;;;14.07;8.48;;;7.30;99.90;;;;;;5026182;28;20041;-77
2023/04/18 06:03:18;;;;;;;12.55;8.70;;;7.30;99.90;;;;;;5031835;28;20033;-80
2023/04/18 06:05:44;;;;;;;15.07;9.05;;;7.30;99.90;;;;;;5031725;28;20057;-77
2023/04/18 06:08:10;;;;;;;13.10;8.88;;;7.30;99.90;;;;;;5031026;28;20044;-78
2023/04/18 06:10:36;;;;;;;12.88;8.80;;;7.30;99.90;;;;;;5030214;28;20029;-77
2023/04/18 06:13:02;;;;;;;12.18;8.38;;;7.40;99.90;;;;;;5031320;28;20026;-77
2023/04/18 06:15:29;;;;;;;12.48;9.02;;;7.40;99.90;;;;;;5031134;28;20619;-77
2023/04/18 06:17:55;;;;;;;12.45;8.32;;;7.40;99.90;;;;;;5031260;28;20387;-77
2023/04/18 06:20:22;;;;;;;12.68;9.00;;;7.50;99.90;;;;;;5030176;28;20037;-77
2023/04/18 06:22:48;;;;;;;16.75;11.77;;;7.50;99.90;;;;;;5031758;28;20467;-77
2023/04/18 06:25:14;;;;;;;13.88;8.82;;;7.50;99.90;;;;;;5029538;28;20060;-77
2023/04/18 06:27:41;;;;;;;11.70;8.75;;;7.50;99.90;;;;;;5034121;28;20041;-77
2023/04/18 06:30:07;;;;;;;13.48;9.50;;;7.50;99.90;;;;;;5034480;28;20053;-77
2023/04/18 06:32:33;;;;;;;13.27;10.02;;;7.60;99.90;;;;;;5034589;28;20032;-76
2023/04/18 06:35:00;;;;;;;14.98;10.40;;;7.60;99.90;;;;;;5033981;28;20033;-77
2023/04/18 06:37:26;;;;;;;18.30;11.32;;;7.70;99.90;;;;;;5035200;28;20029;-78
2023/04/18 06:39:52;;;;;;;11.75;7.95;;;7.90;99.90;;;;;;5032193;28;20042;-75
2023/04/18 06:42:18;;;;;;;15.65;9.50;;;8.10;99.90;;;;;;5034388;28;20045;-77
2023/04/18 06:44:46;;;;;;;15.70;9.35;;;8.20;99.90;;;;;;5032686;28;20052;-74
2023/04/18 06:47:13;;;;;;;13.07;9.85;;;8.30;99.90;;;;;;5034658;28;20046;-75
2023/04/18 06:49:39;;;;;;;13.50;9.90;;;8.50;99.90;;;;;;5033569;28;20029;-74
2023/04/18 06:52:05;;;;;;;13.25;7.70;;;8.70;97.40;;;;;;5035114;28;20036;-75
2023/04/18 06:54:31;;;;;;;12.50;8.88;;;8.60;91.30;;;;;;5035015;28;20040;-75
2023/04/18 06:56:58;;;;;;;14.15;8.85;;;8.70;89.50;;;;;;5035672;28;20148;-74
2023/04/18 06:59:24;;;;;;;15.35;8.90;;;8.80;91.70;;;;;;5034980;28;20072;-76
2023/04/18 07:01:50;;;;;;;14.00;8.93;;;8.70;89.00;;;;;;5033463;28;20036;-75
2023/04/18 07:04:16;;;;;;;14.07;9.60;;;8.70;94.20;;;;;;5034444;28;20040;-76
2023/04/18 07:06:42;;;;;;;11.30;8.18;;;8.70;96.60;;;;;;5032524;28;20052;-75
2023/04/18 07:09:09;;;;;;;12.77;8.98;;;8.80;91.10;;;;;;5034726;28;20045;-74
2023/04/18 07:11:35;;;;;;;14.70;9.48;;;8.70;94.10;;;;;;5029504;28;20037;-75
2023/04/18 07:14:01;;;;;;;13.43;9.25;;;8.70;94.70;;;;;;5035296;28;20045;-74
2023/04/18 07:16:27;;;;;;;13.25;8.75;;;8.70;93.40;;;;;;5033994;28;20038;-75
2023/04/18 07:18:53;;;;;;;11.43;7.72;;;8.80;94.90;;;;;;5034453;28;20409;-75
2023/04/18 07:21:19;;;;;;;15.90;10.32;;;8.90;91.80;;;;;;5032960;28;20455;-76
2023/04/18 07:23:45;;;;;;;15.45;10.30;;;8.90;90.10;;;;;;5031533;28;20037;-76
2023/04/18 07:26:12;;;;;;;16.25;9.88;;;9.00;91.60;;;;;;5034175;28;20040;-75
2023/04/18 07:28:38;;;;;;;13.50;9.20;;;9.10;90.30;;;;;;5034142;28;20029;-77
2023/04/18 07:31:05;;;;;;;12.70;8.35;;;9.00;90.20;;;;;;5031843;28;20040;-75
2023/04/18 07:33:32;;;;;;;13.55;8.18;;;9.00;92.60;;;;;;5033594;28;20029;-75
2023/04/18 07:36:00;;;;;;;12.27;8.55;;;8.90;88.40;;;;;;5035124;28;20048;-75
2023/04/18 07:38:26;;;;;;;14.75;8.43;;;9.00;93.80;;;;;;5034448;28;20061;-76
2023/04/18 07:40:57;;;;;;;15.43;8.88;;;9.00;92.90;;;;;;5032660;28;20029;-76
2023/04/18 07:43:23;;;;;;;13.30;8.13;;;9.10;93.50;;;;;;5034279;28;20056;-76
2023/04/18 07:45:50;;;;;;;14.15;8.30;;;9.20;86.70;;;;;;5034492;28;20030;-75
2023/04/18 07:48:21;;;;;;;13.52;9.75;;;9.30;78.60;;;;;;5033971;28;20050;-76
2023/04/18 07:50:48;;;;;;;13.00;7.75;;;9.30;77.00;;;;;;5033534;28;20037;-75
2023/04/18 07:53:14;;;;;;;13.68;8.57;;;9.40;72.50;;;;;;5034892;28;20042;-77
2023/04/18 07:55:42;;;;;;;14.43;9.10;;;9.40;71.80;;;;;;5034481;28;20052;-79
2023/04/18 07:58:08;;;;;;;12.25;8.70;;;9.50;68.90;;;;;;5034029;28;20041;-75
2023/04/18 08:00:36;;;;;;;11.38;8.30;;;9.40;72.10;;;;;;5032060;28;20214;-83
2023/04/18 08:03:02;;;;;;;15.27;10.13;;;9.40;73.00;;;;;;5032572;28;20037;-78
2023/04/18 08:05:28;;;;;;;11.93;8.82;;;9.30;63.30;;;;;;5033926;28;20057;-75
2023/04/18 08:07:54;;;;;;;11.93;8.18;;;9.30;72.70;;;;;;5033811;28;20494;-76
2023/04/18 08:10:20;;;;;;;13.27;8.80;;;9.40;83.40;;;;;;5032321;28;20033;-76
2023/04/18 08:12:46;;;;;;;12.13;8.93;;;9.50;64.30;;;;;;5032431;28;20029;-75
2023/04/18 08:15:12;;;;;;;14.32;9.30;;;9.60;61.20;;;;;;5033544;28;20037;-76
2023/04/18 08:17:41;;;;;;;12.75;8.90;;;9.50;53.40;;;;;;5033094;28;20056;-74
2023/04/18 08:20:07;;;;;;;12.82;8.10;;;9.50;61.10;;;;;;5025809;28;20041;-74
2023/04/18 08:22:33;;;;;;;16.52;8.65;;;9.70;58.60;;;;;;5032947;28;20033;-76
2023/04/18 08:25:00;;;;;;;15.57;9.27;;;9.80;50.90;;;;;;5033456;28;20403;-79
2023/04/18 08:27:27;;;;;;;13.45;8.40;;;10.00;45.80;;;;;;5033151;28;20360;-77
2023/04/18 08:29:54;;;;;;;13.18;8.70;;;10.10;37.00;;;;;;5032303;28;20044;-74
2023/04/18 08:32:20;;;;;;;12.20;8.85;;;10.10;30.70;;;;;;5033022;28;20030;-76
2023/04/18 08:34:46;;;;;;;14.73;8.88;;;10.00;39.50;;;;;;5026951;28;20029;-76
2023/04/18 08:37:13;;;;;;;14.75;9.20;;;10.00;39.20;;;;;;5033536;28;20048;-77
2023/04/18 08:39:39;;;;;;;12.00;7.88;;;10.10;46.20;;;;;;5031856;28;20038;-76
2023/04/18 08:42:05;;;;;;;14.35;8.88;;;10.10;33.20;;;;;;5035120;28;20418;-75
2023/04/18 08:44:33;;;;;;;14.02;8.98;;;10.00;41.80;;;;;;5032509;28;20025;-75
2023/04/18 08:47:00;;;;;;;13.45;8.32;;;10.20;39.40;;;;;;5032701;28;20060;-75
2023/04/18 08:49:27;;;;;;;13.52;8.35;;;10.30;35.90;;;;;;5031799;28;20394;-76
2023/04/18 08:51:53;;;;;;;11.85;8.55;;;10.40;25.70;;;;;;5033580;28;20044;-75
2023/04/18 08:54:21;;;;;;;13.55;8.75;;;10.40;22.10;;;;;;5029370;28;20021;-78
2023/04/18 08:57:03;;;;;;;12.52;7.75;;;10.40;15.80;;;;;;5031305;28;20033;-75
2023/04/18 08:59:31;;;;;;;12.25;7.82;;;10.40;21.20;;;;;;5029187;28;20040;-76
2023/04/18 09:02:00;;;;;;;12.23;7.57;;;10.60;11.90;;;;;;5026521;28;20048;-75
2023/04/18 09:04:47;;;;;;;12.00;8.38;;;11.20;1.00;;;;;;5025558;28;20041;-76
2023/04/18 09:07:15;;;;;;;11.98;7.55;;;12.60;1.00;;;;;;5029382;28;20041;-76
2023/04/18 09:09:49;;;;;;;12.00;7.10;;;12.60;1.00;;;;;;5031014;28;20044;-75
2023/04/18 09:12:45;;;;;;;11.30;7.55;;;13.20;1.00;;;;;;5032882;28;20052;-75
2023/04/18 09:15:16;;;;;;;9.05;6.97;;;14.50;1.00;;;;;;5020933;28;20394;-75
2023/04/18 09:17:48;;;;;;;10.35;7.10;;;15.00;1.00;;;;;;5028159;28;20048;-76
2023/04/18 09:20:34;;;;;;;11.65;7.80;;;13.20;1.00;;;;;;5029355;28;20049;-73
2023/04/18 09:23:13;;;;;;;14.45;7.78;;;12.00;1.00;;;;;;5032166;28;20493;-75
2023/04/18 09:25:47;;;;;;;10.25;7.82;;;11.60;1.00;;;;;;5032074;28;20494;-75
2023/04/18 09:28:32;;;;;;;11.85;7.80;;;11.40;1.00;;;;;;5032914;28;20045;-75
2023/04/18 09:31:10;;;;;;;10.70;7.53;;;11.20;1.00;;;;;;5030227;28;20060;-74
2023/04/18 09:33:38;;;;;;;11.88;7.55;;;11.40;1.00;;;;;;5031894;28;20029;-75
2023/04/18 09:36:27;;;;;;;11.30;7.35;;;11.40;1.00;;;;;;5031222;28;20034;-74
2023/04/18 09:38:53;;;;;;;11.07;7.72;;;11.50;1.00;;;;;;5031223;28;20394;-73
2023/04/18 09:41:21;;;;;;;12.50;8.88;;;11.60;1.00;;;;;;5030686;28;20041;-75
2023/04/18 09:43:47;;;;;;;11.50;7.88;;;11.70;1.00;;;;;;5032147;28;20523;-73
2023/04/18 09:46:16;;;;;;;10.35;7.25;;;11.80;1.00;;;;;;5031390;28;20036;-75
2023/04/18 09:48:42;;;;;;;10.55;7.38;;;11.80;1.00;;;;;;5031792;28;20037;-73
2023/04/18 09:51:10;;;;;;;11.65;7.07;;;11.80;1.00;;;;;;5030661;28;20032;-76
2023/04/18 09:53:39;;;;;;;10.82;7.28;;;12.20;1.00;;;;;;5031340;28;20414;-74
2023/04/18 09:56:08;;;;;;;11.30;7.32;;;12.00;1.00;;;;;;5032289;28;20041;-75
2023/04/18 09:58:39;;;;;;;10.00;7.60;;;11.90;1.00;;;;;;5029202;28;20196;-75
2023/04/18 10:01:06;;;;;;;12.10;7.80;;;11.70;1.00;;;;;;5030360;28;20040;-75
2023/04/18 10:03:40;;;;;;;10.05;7.05;;;11.80;1.00;;;;;;5031027;28;20033;-74
2023/04/18 10:06:07;;;;;;;11.80;7.47;;;11.90;1.00;;;;;;5029901;28;20056;-73
2023/04/18 10:08:33;;;;;;;10.20;6.53;;;12.00;1.00;;;;;;5031750;28;20049;-73
2023/04/18 10:11:00;;;;;;;10.98;6.68;;;12.30;1.00;;;;;;5030864;28;20025;-73
2023/04/18 10:13:28;;;;;;;9.43;6.60;;;13.10;1.00;;;;;;5031159;28;20041;-75
2023/04/18 10:15:54;;;;;;;8.80;6.22;;;13.50;1.00;;;;;;5031754;28;20056;-74
2023/04/18 10:18:23;;;;;;;12.18;7.63;;;14.10;1.00;;;;;;5031076;28;20025;-77
2023/04/18 10:20:50;;;;;;;8.93;6.10;;;13.50;1.00;;;;;;5031185;28;20029;-74
2023/04/18 10:23:34;;;;;;;9.68;6.45;;;13.40;1.00;;;;;;5031615;28;20029;-74
2023/04/18 10:26:05;;;;;;;12.70;7.03;;;13.50;1.00;;;;;;5042415;28;20121;-73
2023/04/18 10:28:51;;;;;;;9.10;6.35;;;13.50;1.00;;;;;;5031228;28;20490;-72
2023/04/18 10:31:18;;;;;;;8.77;5.93;;;13.50;1.00;;;;;;5030376;28;20029;-72
2023/04/18 10:33:54;;;;;;;11.90;6.35;;;13.60;1.00;;;;;;5031775;28;20034;-74
2023/04/18 10:36:21;;;;;;;9.55;7.18;;;13.40;1.00;;;;;;5031603;28;20434;-74
2023/04/18 10:38:52;;;;;;;10.60;6.82;;;13.30;1.00;;;;;;5031522;28;20041;-73
2023/04/18 10:41:26;;;;;;;9.88;6.25;;;13.40;1.00;;;;;;5030252;28;20049;-73
2023/04/18 10:44:08;;;;;;;7.50;5.78;;;13.60;1.00;;;;;;5031629;28;20048;-72
2023/04/18 10:46:35;;;;;;;9.02;6.07;;;13.90;1.00;;;;;;5030676;28;20034;-72
2023/04/18 10:49:22;;;;;;;9.85;6.97;;;14.10;1.00;;;;;;5031693;28;20139;-78
2023/04/18 10:51:53;;;;;;;9.93;6.18;;;13.90;1.00;;;;;;5031138;28;20030;-74
2023/04/18 10:54:21;;;;;;;10.48;6.35;;;13.50;1.00;;;;;;5031379;28;20052;-72
2023/04/18 10:56:52;;;;;;;7.55;5.70;;;13.40;1.00;;;;;;5031137;28;20061;-74
2023/04/18 10:59:22;;;;;;;;;;;13.40;1.00;;;;;;5025597;28;20041;-73
2023/04/18 11:01:54;;;;;;;8.70;5.50;;;13.60;1.00;;;;;;5026738;28;19931;-75
2023/04/18 11:04:20;;;;;;;8.60;5.82;;;14.00;1.00;;;;;;5027099;28;20034;-72
2023/04/18 11:06:53;;;;;;;8.10;4.88;;;14.00;1.00;;;;;;5030692;28;20044;-72
2023/04/18 11:09:21;;;;;;;8.23;5.32;;;14.30;1.00;;;;;;5027268;28;20462;-73
2023/04/18 11:12:03;;;;;;;7.63;5.63;;;14.50;1.00;;;;;;5026484;28;20030;-73
2023/04/18 11:14:42;;;;;;;6.97;4.97;;;14.80;1.00;;;;;;5033795;28;20033;-76
2023/04/18 11:17:15;;;;;;;6.80;5.10;;;14.50;1.00;;;;;;5034920;28;20029;-73
2023/04/18 11:19:42;;;;;;;7.93;5.68;;;14.90;1.00;;;;;;5034729;28;20045;-75
2023/04/18 11:22:08;;;;;;;9.10;6.68;;;14.70;1.00;;;;;;5035952;28;20033;-74
2023/04/18 11:24:34;;;;;;;5.97;4.38;;;14.60;1.00;;;;;;5035131;28;20033;-73
2023/04/18 11:27:02;;;;;;;6.53;4.70;;;14.60;1.00;;;;;;5034854;28;20045;-75
2023/04/18 11:29:28;;;;;;;9.25;5.10;;;14.70;1.00;;;;;;5033482;28;20053;-75
2023/04/18 11:31:55;;;;;;;7.55;4.05;;;15.40;1.00;;;;;;5035201;28;20033;-72
2023/04/18 11:34:21;;;;;;;5.95;4.22;;;14.80;1.00;;;;;;5034538;28;20048;-75
2023/04/18 11:36:49;;;;;;;5.88;3.95;;;14.50;1.00;;;;;;5033663;28;20045;-74
2023/04/18 11:39:16;;;;;;;5.70;3.85;;;14.50;1.00;;;;;;5033349;28;20033;-74
2023/04/18 11:41:49;;;;;;;6.45;4.38;;;14.60;1.00;;;;;;5033405;28;20394;-75
2023/04/18 11:44:23;;;;;;;7.63;3.65;;;14.50;1.00;;;;;;5031976;28;20037;-73
2023/04/18 11:46:50;;;;;;;6.25;3.78;;;14.40;1.00;;;;;;5034630;28;20057;-76
2023/04/18 11:49:31;;;;;;;5.80;4.30;;;14.50;1.00;;;;;;5034372;28;20037;-75
2023/04/18 11:51:59;;;;;;;6.38;3.95;;;14.30;1.00;;;;;;5034148;28;20029;-74
2023/04/18 11:54:41;;;;;;;5.25;3.83;;;14.30;1.00;;;;;;5032350;28;20033;-76
2023/04/18 11:57:37;;;;;;;5.63;3.88;;;14.30;1.00;;;;;;5029905;28;20037;-78
2023/04/18 12:00:06;;;;;;;6.43;3.70;;;14.50;1.00;;;;;;5027686;28;20041;-74
2023/04/18 12:02:39;;;;;;;6.07;4.18;;;14.30;1.00;;;;;;5039842;28;20041;-73
2023/04/18 12:05:05;;;;;;;;;;;14.30;1.00;;;;;;5034582;28;20351;-74
2023/04/18 12:07:36;;;;;;;8.15;4.60;;;14.40;1.00;;;;;;5035509;28;19917;-73
2023/04/18 12:10:05;;;;;;;5.10;3.33;;;14.80;1.00;;;;;;5034182;28;20494;-73
2023/04/18 12:12:31;;;;;;;4.05;3.17;;;14.60;1.00;;;;;;5033407;28;20033;-73
2023/04/18 12:15:12;;;;;;;4.75;3.47;;;14.50;1.00;;;;;;5033822;28;20467;-73
2023/04/18 12:17:38;;;;;;;4.07;3.03;;;14.80;1.00;;;;;;5030050;28;20044;-76
2023/04/18 12:20:09;;;;;;;6.20;3.35;;;14.80;1.00;;;;;;5032700;28;20041;-74
2023/04/18 12:22:40;;;;;;;;;;;14.70;1.00;;;;;;5029991;28;20041;-76
2023/04/18 12:25:24;;;;;;;3.88;3.10;;;14.40;1.00;;;;;;5028464;28;19916;-74
2023/04/18 12:27:55;;;;;;;4.90;2.92;;;14.50;1.00;;;;;;5031047;28;20041;-74
2023/04/18 12:30:22;;;;;;;;;;;14.40;1.00;;;;;;5033497;28;20061;-73
2023/04/18 12:32:50;;;;;;;8.55;3.42;;;14.30;1.00;;;;;;5032535;28;19932;-73
2023/04/18 12:35:18;;;;;;;8.02;3.20;;;14.10;1.00;;;;;;5033150;28;20029;-74
2023/04/18 12:37:48;;;;;;;5.05;3.33;;;14.00;1.00;;;;;;5032525;28;20044;-73
2023/04/18 12:40:15;;;;;;;4.47;2.88;;;14.10;1.00;;;;;;5029241;28;20049;-73
2023/04/18 12:42:41;;;;;;;5.13;3.45;;;14.00;1.00;;;;;;5021288;28;20046;-81
2023/04/18 12:45:09;;;;;;;5.18;3.50;;;14.10;1.00;;;;;;5022875;28;20038;-75
2023/04/18 12:47:40;;;;;;;6.10;3.15;;;14.10;1.00;;;;;;5027226;28;20081;-73
2023/04/18 12:50:08;;;;;;;5.50;3.90;;;14.20;1.00;;;;;;5030608;28;20037;-75
2023/04/18 12:52:37;;;;;;;3.88;2.85;;;14.10;1.00;;;;;;5032448;28;20029;-74
2023/04/18 12:55:04;;;;;;;4.75;3.20;;;14.10;1.00;;;;;;5031861;28;20040;-76
2023/04/18 12:57:31;;;;;;;4.82;3.08;;;14.20;1.00;;;;;;5032432;28;20053;-75
2023/04/18 12:59:57;;;;;;;4.53;3.25;;;14.30;1.00;;;;;;5032271;28;20030;-75